sensor_id;sensor_type;location;lat;lon;timestamp;pressure;altitude;pressure_sealevel;temperature;humidity
54882;BME280;40775;51.448;4.742;2022-07-09T00:02:00;102739.72;;;20.53;68.79
54882;BME280;40775;51.448;4.742;2022-07-09T00:04:27;102737.91;;;20.48;68.82
54882;BME280;40775;51.448;4.742;2022-07-09T00:06:55;102733.47;;;20.51;68.82
54882;BME280;40775;51.448;4.742;2022-07-09T00:09:22;102728.06;;;20.42;69.13
54882;BME280;40775;51.448;4.742;2022-07-09T00:11:49;102728.00;;;20.39;69.28
54882;BME280;40775;51.448;4.742;2022-07-09T00:14:17;102730.66;;;20.37;69.22
54882;BME280;40775;51.448;4.742;2022-07-09T00:16:44;102728.84;;;20.33;69.16
54882;BME280;40775;51.448;4.742;2022-07-09T00:19:11;102738.63;;;20.33;69.29
54882;BME280;40775;51.448;4.742;2022-07-09T00:21:38;102736.69;;;20.21;69.38
54882;BME280;40775;51.448;4.742;2022-07-09T00:24:05;102739.31;;;20.17;69.20
54882;BME280;40775;51.448;4.742;2022-07-09T00:26:33;102740.22;;;20.16;69.44
54882;BME280;40775;51.448;4.742;2022-07-09T00:29:00;102738.38;;;20.12;69.20
54882;BME280;40775;51.448;4.742;2022-07-09T00:31:27;102738.34;;;20.09;68.98
54882;BME280;40775;51.448;4.742;2022-07-09T00:33:54;102741.94;;;20.12;69.23
54882;BME280;40775;51.448;4.742;2022-07-09T00:36:21;102731.19;;;20.04;69.10
54882;BME280;40775;51.448;4.742;2022-07-09T00:38:48;102737.41;;;20.02;69.41
54882;BME280;40775;51.448;4.742;2022-07-09T00:41:16;102729.38;;;20.00;69.23
54882;BME280;40775;51.448;4.742;2022-07-09T00:43:47;102720.44;;;19.98;69.51
54882;BME280;40775;51.448;4.742;2022-07-09T00:46:16;102723.03;;;19.92;69.61
54882;BME280;40775;51.448;4.742;2022-07-09T00:48:46;102722.97;;;19.85;69.63
54882;BME280;40775;51.448;4.742;2022-07-09T00:51:14;102732.72;;;19.84;69.59
54882;BME280;40775;51.448;4.742;2022-07-09T00:53:45;102728.22;;;19.77;70.06
54882;BME280;40775;51.448;4.742;2022-07-09T00:56:12;102726.47;;;19.81;69.80
54882;BME280;40775;51.448;4.742;2022-07-09T00:58:42;102722.91;;;19.80;70.08
54882;BME280;40775;51.448;4.742;2022-07-09T01:01:11;102718.34;;;19.71;70.02
54882;BME280;40775;51.448;4.742;2022-07-09T01:03:38;102722.75;;;19.69;69.96
54882;BME280;40775;51.448;4.742;2022-07-09T01:06:05;102721.84;;;19.67;70.40
54882;BME280;40775;51.448;4.742;2022-07-09T01:08:32;102720.00;;;19.62;70.05
54882;BME280;40775;51.448;4.742;2022-07-09T01:11:00;102716.44;;;19.60;70.47
54882;BME280;40775;51.448;4.742;2022-07-09T01:13:28;102720.81;;;19.55;70.40
54882;BME280;40775;51.448;4.742;2022-07-09T01:15:55;102721.75;;;19.60;70.74
54882;BME280;40775;51.448;4.742;2022-07-09T01:18:22;102721.69;;;19.55;70.75
54882;BME280;40775;51.448;4.742;2022-07-09T01:20:51;102712.81;;;19.55;70.58
54882;BME280;40775;51.448;4.742;2022-07-09T01:23:19;102706.53;;;19.53;70.73
54882;BME280;40775;51.448;4.742;2022-07-09T01:25:46;102703.81;;;19.47;70.90
54882;BME280;40775;51.448;4.742;2022-07-09T01:28:13;102703.78;;;19.45;70.56
54882;BME280;40775;51.448;4.742;2022-07-09T01:30:41;102700.16;;;19.43;70.86
54882;BME280;40775;51.448;4.742;2022-07-09T01:33:09;102701.88;;;19.36;70.80
54882;BME280;40775;51.448;4.742;2022-07-09T01:35:36;102702.75;;;19.37;70.69
54882;BME280;40775;51.448;4.742;2022-07-09T01:38:03;102697.41;;;19.35;71.05
54882;BME280;40775;51.448;4.742;2022-07-09T01:40:30;102701.88;;;19.36;71.20
54882;BME280;40775;51.448;4.742;2022-07-09T01:42:57;102692.06;;;19.34;71.67
54882;BME280;40775;51.448;4.742;2022-07-09T01:45:24;102692.91;;;19.31;71.87
54882;BME280;40775;51.448;4.742;2022-07-09T01:47:51;102692.91;;;19.31;71.86
54882;BME280;40775;51.448;4.742;2022-07-09T01:50:19;102692.00;;;19.29;72.03
54882;BME280;40775;51.448;4.742;2022-07-09T01:52:46;102685.78;;;19.27;72.05
54882;BME280;40775;51.448;4.742;2022-07-09T01:55:13;102687.47;;;19.22;71.96
54882;BME280;40775;51.448;4.742;2022-07-09T01:57:41;102687.47;;;19.22;71.88
54882;BME280;40775;51.448;4.742;2022-07-09T02:00:08;102681.16;;;19.17;71.98
54882;BME280;40775;51.448;4.742;2022-07-09T02:02:35;102681.97;;;19.11;72.16
54882;BME280;40775;51.448;4.742;2022-07-09T02:05:03;102681.09;;;19.12;71.96
54882;BME280;40775;51.448;4.742;2022-07-09T02:07:30;102684.66;;;19.13;72.24
54882;BME280;40775;51.448;4.742;2022-07-09T02:09:57;102682.84;;;19.09;72.38
54882;BME280;40775;51.448;4.742;2022-07-09T02:12:24;102675.75;;;19.09;72.50
54882;BME280;40775;51.448;4.742;2022-07-09T02:14:51;102679.25;;;19.07;73.05
54882;BME280;40775;51.448;4.742;2022-07-09T02:17:18;102678.31;;;19.02;72.74
54882;BME280;40775;51.448;4.742;2022-07-09T02:19:46;102673.84;;;19.01;73.02
54882;BME280;40775;51.448;4.742;2022-07-09T02:22:13;102665.81;;;18.98;72.85
54882;BME280;40775;51.448;4.742;2022-07-09T02:24:40;102659.59;;;18.97;73.18
54882;BME280;40775;51.448;4.742;2022-07-09T02:27:08;102671.16;;;18.98;73.33
54882;BME280;40775;51.448;4.742;2022-07-09T02:29:36;102671.19;;;19.01;73.87
54882;BME280;40775;51.448;4.742;2022-07-09T02:32:03;102676.50;;;18.99;73.55
54882;BME280;40775;51.448;4.742;2022-07-09T02:34:30;102667.53;;;18.94;73.81
54882;BME280;40775;51.448;4.742;2022-07-09T02:36:59;102670.28;;;18.99;73.94
54882;BME280;40775;51.448;4.742;2022-07-09T02:39:26;102660.53;;;19.01;74.30
54882;BME280;40775;51.448;4.742;2022-07-09T02:41:53;102661.41;;;19.00;74.12
54882;BME280;40775;51.448;4.742;2022-07-09T02:44:20;102657.88;;;19.01;74.27
54882;BME280;40775;51.448;4.742;2022-07-09T02:46:47;102655.25;;;19.02;74.11
54882;BME280;40775;51.448;4.742;2022-07-09T02:49:14;102664.09;;;19.01;74.28
54882;BME280;40775;51.448;4.742;2022-07-09T02:51:42;102665.88;;;19.02;74.51
54882;BME280;40775;51.448;4.742;2022-07-09T02:54:09;102667.66;;;19.03;74.25
54882;BME280;40775;51.448;4.742;2022-07-09T02:56:36;102664.19;;;19.09;74.65
54882;BME280;40775;51.448;4.742;2022-07-09T02:59:03;102673.94;;;19.07;74.30
54882;BME280;40775;51.448;4.742;2022-07-09T03:01:30;102657.91;;;19.04;74.75
54882;BME280;40775;51.448;4.742;2022-07-09T03:03:57;102659.75;;;19.08;74.61
54882;BME280;40775;51.448;4.742;2022-07-09T03:06:24;102660.56;;;19.04;74.69
54882;BME280;40775;51.448;4.742;2022-07-09T03:08:51;102657.88;;;19.01;74.44
54882;BME280;40775;51.448;4.742;2022-07-09T03:11:18;102661.47;;;19.04;74.79
54882;BME280;40775;51.448;4.742;2022-07-09T03:13:45;102657.03;;;19.03;74.81
54882;BME280;40775;51.448;4.742;2022-07-09T03:16:12;102658.81;;;19.04;74.84
54882;BME280;40775;51.448;4.742;2022-07-09T03:18:40;102659.72;;;19.05;74.64
54882;BME280;40775;51.448;4.742;2022-07-09T03:21:07;102655.25;;;19.04;74.91
54882;BME280;40775;51.448;4.742;2022-07-09T03:23:35;102656.16;;;19.04;74.69
54882;BME280;40775;51.448;4.742;2022-07-09T03:26:04;102649.94;;;19.04;74.63
54882;BME280;40775;51.448;4.742;2022-07-09T03:28:32;102642.81;;;19.01;74.69
54882;BME280;40775;51.448;4.742;2022-07-09T03:31:00;102633.97;;;19.05;74.63
54882;BME280;40775;51.448;4.742;2022-07-09T03:33:28;102644.69;;;19.10;74.98
54882;BME280;40775;51.448;4.742;2022-07-09T03:35:55;102634.94;;;19.12;75.06
54882;BME280;40775;51.448;4.742;2022-07-09T03:38:23;102637.63;;;19.13;75.06
54882;BME280;40775;51.448;4.742;2022-07-09T03:40:51;102634.94;;;19.12;75.26
54882;BME280;40775;51.448;4.742;2022-07-09T03:43:19;102640.31;;;19.15;75.44
54882;BME280;40775;51.448;4.742;2022-07-09T03:45:46;102635.88;;;19.14;75.52
54882;BME280;40775;51.448;4.742;2022-07-09T03:48:14;102635.88;;;19.14;75.65
54882;BME280;40775;51.448;4.742;2022-07-09T03:50:41;102642.06;;;19.13;75.63
54882;BME280;40775;51.448;4.742;2022-07-09T03:53:08;102649.16;;;19.12;75.57
54882;BME280;40775;51.448;4.742;2022-07-09T03:55:35;102640.28;;;19.13;75.63
54882;BME280;40775;51.448;4.742;2022-07-09T03:58:02;102645.56;;;19.10;75.74
54882;BME280;40775;51.448;4.742;2022-07-09T04:00:30;102645.56;;;19.10;75.48
54882;BME280;40775;51.448;4.742;2022-07-09T04:02:57;102643.88;;;19.15;75.91
54882;BME280;40775;51.448;4.742;2022-07-09T04:05:24;102630.53;;;19.14;75.90
54882;BME280;40775;51.448;4.742;2022-07-09T04:07:51;102637.56;;;19.09;75.73
54882;BME280;40775;51.448;4.742;2022-07-09T04:10:18;102634.91;;;19.09;75.67
54882;BME280;40775;51.448;4.742;2022-07-09T04:12:45;102632.28;;;19.12;75.89
54882;BME280;40775;51.448;4.742;2022-07-09T04:15:12;102629.53;;;19.04;75.79
54882;BME280;40775;51.448;4.742;2022-07-09T04:17:39;102626.88;;;19.06;75.84
54882;BME280;40775;51.448;4.742;2022-07-09T04:20:07;102628.88;;;19.21;76.44
54882;BME280;40775;51.448;4.742;2022-07-09T04:22:35;102634.97;;;19.13;76.02
54882;BME280;40775;51.448;4.742;2022-07-09T04:25:03;102634.03;;;19.10;76.48
54882;BME280;40775;51.448;4.742;2022-07-09T04:27:30;102631.38;;;19.10;76.30
54882;BME280;40775;51.448;4.742;2022-07-09T04:29:57;102631.38;;;19.10;76.51
54882;BME280;40775;51.448;4.742;2022-07-09T04:32:24;102631.34;;;19.07;76.19
54882;BME280;40775;51.448;4.742;2022-07-09T04:34:52;102636.66;;;19.07;76.65
54882;BME280;40775;51.448;4.742;2022-07-09T04:37:19;102639.31;;;19.07;76.42
54882;BME280;40775;51.448;4.742;2022-07-09T04:39:46;102634.88;;;19.06;76.36
54882;BME280;40775;51.448;4.742;2022-07-09T04:42:13;102638.44;;;19.08;76.86
54882;BME280;40775;51.448;4.742;2022-07-09T04:44:40;102636.69;;;19.08;76.69
54882;BME280;40775;51.448;4.742;2022-07-09T04:47:11;102636.66;;;19.07;76.47
54882;BME280;40775;51.448;4.742;2022-07-09T04:49:38;102628.72;;;19.11;76.52
54882;BME280;40775;51.448;4.742;2022-07-09T04:52:06;102632.28;;;19.12;76.80
54882;BME280;40775;51.448;4.742;2022-07-09T04:54:33;102625.19;;;19.11;76.73
54882;BME280;40775;51.448;4.742;2022-07-09T04:57:02;102625.22;;;19.14;76.90
54882;BME280;40775;51.448;4.742;2022-07-09T04:59:29;102616.41;;;19.18;77.05
54882;BME280;40775;51.448;4.742;2022-07-09T05:01:56;102620.00;;;19.20;77.06
54882;BME280;40775;51.448;4.742;2022-07-09T05:04:23;102628.94;;;19.25;77.07
54882;BME280;40775;51.448;4.742;2022-07-09T05:06:50;102619.22;;;19.29;76.89
54882;BME280;40775;51.448;4.742;2022-07-09T05:09:17;102616.63;;;19.36;77.18
54882;BME280;40775;51.448;4.742;2022-07-09T05:11:44;102615.78;;;19.39;77.30
54882;BME280;40775;51.448;4.742;2022-07-09T05:14:12;102614.09;;;19.45;77.37
54882;BME280;40775;51.448;4.742;2022-07-09T05:16:39;102611.47;;;19.49;77.84
54882;BME280;40775;51.448;4.742;2022-07-09T05:19:12;102611.47;;;19.49;77.78
54882;BME280;40775;51.448;4.742;2022-07-09T05:21:42;102611.56;;;19.53;77.82
54882;BME280;40775;51.448;4.742;2022-07-09T05:24:09;102608.03;;;19.56;77.73
54882;BME280;40775;51.448;4.742;2022-07-09T05:26:36;102605.25;;;19.50;77.81
54882;BME280;40775;51.448;4.742;2022-07-09T05:29:04;102610.69;;;19.54;77.74
54882;BME280;40775;51.448;4.742;2022-07-09T05:31:31;102611.56;;;19.55;77.78
54882;BME280;40775;51.448;4.742;2022-07-09T05:34:01;102612.59;;;19.67;77.88
54882;BME280;40775;51.448;4.742;2022-07-09T05:36:28;102615.38;;;19.78;77.87
54882;BME280;40775;51.448;4.742;2022-07-09T05:38:57;102610.97;;;19.82;78.28
54882;BME280;40775;51.448;4.742;2022-07-09T05:41:24;102602.16;;;19.89;78.45
54882;BME280;40775;51.448;4.742;2022-07-09T05:43:53;102600.44;;;19.97;78.60
54882;BME280;40775;51.448;4.742;2022-07-09T05:46:20;102610.22;;;19.96;78.36
54882;BME280;40775;51.448;4.742;2022-07-09T05:48:48;102601.34;;;19.99;78.72
54882;BME280;40775;51.448;4.742;2022-07-09T05:51:15;102599.63;;;20.02;78.31
54882;BME280;40775;51.448;4.742;2022-07-09T05:53:42;102597.00;;;20.07;78.72
54882;BME280;40775;51.448;4.742;2022-07-09T05:56:10;102601.56;;;20.22;78.85
54882;BME280;40775;51.448;4.742;2022-07-09T05:58:37;102607.00;;;20.31;78.85
54882;BME280;40775;51.448;4.742;2022-07-09T06:01:06;102608.81;;;20.35;78.97
54882;BME280;40775;51.448;4.742;2022-07-09T06:03:33;102603.47;;;20.35;78.43
54882;BME280;40775;51.448;4.742;2022-07-09T06:06:01;102608.03;;;20.47;78.61
54882;BME280;40775;51.448;4.742;2022-07-09T06:08:28;102610.66;;;20.41;77.69
54882;BME280;40775;51.448;4.742;2022-07-09T06:10:55;102613.38;;;20.50;77.87
54882;BME280;40775;51.448;4.742;2022-07-09T06:13:22;102612.50;;;20.49;77.72
54882;BME280;40775;51.448;4.742;2022-07-09T06:15:50;102618.81;;;20.57;78.26
54882;BME280;40775;51.448;4.742;2022-07-09T06:18:17;102623.25;;;20.58;78.09
54882;BME280;40775;51.448;4.742;2022-07-09T06:20:44;102632.16;;;20.57;77.87
54882;BME280;40775;51.448;4.742;2022-07-09T06:23:12;102637.44;;;20.54;77.91
54882;BME280;40775;51.448;4.742;2022-07-09T06:25:39;102633.97;;;20.63;77.57
54882;BME280;40775;51.448;4.742;2022-07-09T06:28:07;102629.56;;;20.71;77.72
54882;BME280;40775;51.448;4.742;2022-07-09T06:30:34;102630.50;;;20.81;77.92
54882;BME280;40775;51.448;4.742;2022-07-09T06:33:02;102638.63;;;20.97;77.91
54882;BME280;40775;51.448;4.742;2022-07-09T06:35:29;102633.28;;;20.94;77.09
54882;BME280;40775;51.448;4.742;2022-07-09T06:37:57;102635.09;;;21.03;76.82
54882;BME280;40775;51.448;4.742;2022-07-09T06:40:25;102630.72;;;21.11;76.85
54882;BME280;40775;51.448;4.742;2022-07-09T06:42:52;102627.19;;;21.23;76.14
54882;BME280;40775;51.448;4.742;2022-07-09T06:45:19;102628.97;;;21.21;76.37
54882;BME280;40775;51.448;4.742;2022-07-09T06:47:46;102631.72;;;21.35;76.18
54882;BME280;40775;51.448;4.742;2022-07-09T06:50:14;102626.47;;;21.50;75.61
54882;BME280;40775;51.448;4.742;2022-07-09T06:52:41;102638.06;;;21.61;75.20
54882;BME280;40775;51.448;4.742;2022-07-09T06:55:08;102627.41;;;21.64;74.97
54882;BME280;40775;51.448;4.742;2022-07-09T06:57:36;102620.28;;;21.68;75.04
54882;BME280;40775;51.448;4.742;2022-07-09T07:00:05;102609.63;;;21.83;74.93
54882;BME280;40775;51.448;4.742;2022-07-09T07:02:33;102617.69;;;21.95;74.94
54882;BME280;40775;51.448;4.742;2022-07-09T07:05:00;102612.28;;;21.90;74.26
54882;BME280;40775;51.448;4.742;2022-07-09T07:07:27;102632.88;;;22.07;74.13
54882;BME280;40775;51.448;4.742;2022-07-09T07:09:54;102623.91;;;21.99;74.33
54882;BME280;40775;51.448;4.742;2022-07-09T07:12:22;102620.34;;;22.00;74.41
54882;BME280;40775;51.448;4.742;2022-07-09T07:14:49;102620.38;;;22.15;74.62
54882;BME280;40775;51.448;4.742;2022-07-09T07:17:17;102619.50;;;22.37;74.32
54882;BME280;40775;51.448;4.742;2022-07-09T07:19:44;102619.53;;;22.48;73.88
54882;BME280;40775;51.448;4.742;2022-07-09T07:22:12;102612.38;;;22.50;73.56
54882;BME280;40775;51.448;4.742;2022-07-09T07:24:39;102620.34;;;22.70;73.29
54882;BME280;40775;51.448;4.742;2022-07-09T07:27:06;102615.94;;;22.81;72.96
54882;BME280;40775;51.448;4.742;2022-07-09T07:29:33;102622.16;;;22.80;72.67
54882;BME280;40775;51.448;4.742;2022-07-09T07:32:00;102606.97;;;22.80;72.76
54882;BME280;40775;51.448;4.742;2022-07-09T07:34:27;102609.66;;;22.88;73.02
54882;BME280;40775;51.448;4.742;2022-07-09T07:36:57;102610.50;;;22.98;72.90
54882;BME280;40775;51.448;4.742;2022-07-09T07:39:24;102616.78;;;22.92;72.28
54882;BME280;40775;51.448;4.742;2022-07-09T07:41:53;102617.63;;;23.12;72.59
54882;BME280;40775;51.448;4.742;2022-07-09T07:44:21;102614.03;;;23.18;72.97
54882;BME280;40775;51.448;4.742;2022-07-09T07:46:51;102605.06;;;23.30;72.62
54882;BME280;40775;51.448;4.742;2022-07-09T07:49:18;102614.88;;;23.23;72.45
54882;BME280;40775;51.448;4.742;2022-07-09T07:51:46;102618.41;;;23.39;72.33
54882;BME280;40775;51.448;4.742;2022-07-09T07:54:13;102638.06;;;23.39;71.70
54882;BME280;40775;51.448;4.742;2022-07-09T07:56:41;102631.75;;;23.59;72.03
54882;BME280;40775;51.448;4.742;2022-07-09T07:59:08;102635.31;;;23.53;71.58
54882;BME280;40775;51.448;4.742;2022-07-09T08:01:35;102621.03;;;23.48;71.74
54882;BME280;40775;51.448;4.742;2022-07-09T08:04:02;102626.38;;;23.51;72.21
54882;BME280;40775;51.448;4.742;2022-07-09T08:06:30;102633.53;;;23.52;72.21
54882;BME280;40775;51.448;4.742;2022-07-09T08:08:57;102631.75;;;23.59;71.76
54882;BME280;40775;51.448;4.742;2022-07-09T08:11:24;102638.88;;;23.52;71.80
54882;BME280;40775;51.448;4.742;2022-07-09T08:13:51;102631.72;;;23.66;71.43
54882;BME280;40775;51.448;4.742;2022-07-09T08:16:18;102620.94;;;23.74;70.18
54882;BME280;40775;51.448;4.742;2022-07-09T08:18:46;102618.22;;;23.79;70.12
54882;BME280;40775;51.448;4.742;2022-07-09T08:21:14;102615.53;;;23.85;69.54
54882;BME280;40775;51.448;4.742;2022-07-09T08:23:41;102621.75;;;23.90;69.46
54882;BME280;40775;51.448;4.742;2022-07-09T08:26:25;102606.56;;;23.86;68.63
54882;BME280;40775;51.448;4.742;2022-07-09T08:28:53;102603.72;;;24.05;67.74
54882;BME280;40775;51.448;4.742;2022-07-09T08:31:21;102602.06;;;23.91;67.26
54882;BME280;40775;51.448;4.742;2022-07-09T08:33:49;102606.38;;;24.09;67.50
54882;BME280;40775;51.448;4.742;2022-07-09T08:36:17;102609.25;;;23.87;66.26
54882;BME280;40775;51.448;4.742;2022-07-09T08:38:44;102603.59;;;24.22;66.68
54882;BME280;40775;51.448;4.742;2022-07-09T08:41:13;102592.06;;;24.10;66.16
54882;BME280;40775;51.448;4.742;2022-07-09T08:43:52;102609.94;;;24.14;66.35
54882;BME280;40775;51.448;4.742;2022-07-09T08:46:20;102608.19;;;24.11;65.93
54882;BME280;40775;51.448;4.742;2022-07-09T08:48:47;102591.91;;;24.31;65.19
54882;BME280;40775;51.448;4.742;2022-07-09T08:51:15;102591.78;;;24.48;65.29
54882;BME280;40775;51.448;4.742;2022-07-09T08:53:44;102589.91;;;24.54;64.95
54882;BME280;40775;51.448;4.742;2022-07-09T08:56:11;102593.63;;;24.43;64.07
54882;BME280;40775;51.448;4.742;2022-07-09T08:58:39;102585.38;;;24.59;63.83
54882;BME280;40775;51.448;4.742;2022-07-09T09:01:06;102588.16;;;24.50;64.51
54882;BME280;40775;51.448;4.742;2022-07-09T09:03:35;102592.75;;;24.41;64.92
54882;BME280;40775;51.448;4.742;2022-07-09T09:06:07;102587.34;;;24.44;65.05
54882;BME280;40775;51.448;4.742;2022-07-09T09:08:37;102600.75;;;24.45;64.52
54882;BME280;40775;51.448;4.742;2022-07-09T09:11:16;102594.34;;;24.57;65.12
54882;BME280;40775;51.448;4.742;2022-07-09T09:13:46;102589.00;;;24.57;65.08
54882;BME280;40775;51.448;4.742;2022-07-09T09:16:15;102600.56;;;24.67;64.48
54882;BME280;40775;51.448;4.742;2022-07-09T09:18:53;102587.88;;;24.79;63.75
54882;BME280;40775;51.448;4.742;2022-07-09T09:21:25;102592.34;;;24.79;63.63
54882;BME280;40775;51.448;4.742;2022-07-09T09:23:56;102581.63;;;24.77;64.50
54882;BME280;40775;51.448;4.742;2022-07-09T09:26:27;102586.19;;;24.71;63.82
54882;BME280;40775;51.448;4.742;2022-07-09T09:29:04;102594.03;;;24.87;63.48
54882;BME280;40775;51.448;4.742;2022-07-09T09:31:36;102595.72;;;24.98;63.18
54882;BME280;40775;51.448;4.742;2022-07-09T09:36:38;102600.16;;;25.03;62.22
54882;BME280;40775;51.448;4.742;2022-07-09T09:46:51;102602.00;;;24.98;62.55
54882;BME280;40775;51.448;4.742;2022-07-09T09:49:21;102592.16;;;24.99;62.74
54882;BME280;40775;51.448;4.742;2022-07-09T09:52:02;102600.06;;;25.11;62.22
54882;BME280;40775;51.448;4.742;2022-07-09T09:54:32;102602.63;;;25.20;61.63
54882;BME280;40775;51.448;4.742;2022-07-09T09:57:02;102599.31;;;25.00;61.75
54882;BME280;40775;51.448;4.742;2022-07-09T09:59:34;102603.81;;;24.94;62.01
54882;BME280;40775;51.448;4.742;2022-07-09T10:02:08;102610.16;;;24.86;61.59
54882;BME280;40775;51.448;4.742;2022-07-09T10:04:43;102611.94;;;24.88;61.33
54882;BME280;40775;51.448;4.742;2022-07-09T10:07:12;102600.25;;;24.91;61.18
54882;BME280;40775;51.448;4.742;2022-07-09T10:09:40;102611.88;;;24.99;60.99
54882;BME280;40775;51.448;4.742;2022-07-09T10:12:08;102600.91;;;25.16;60.47
54882;BME280;40775;51.448;4.742;2022-07-09T10:14:38;102606.41;;;25.07;61.02
54882;BME280;40775;51.448;4.742;2022-07-09T10:17:14;102612.75;;;25.00;61.07
54882;BME280;40775;51.448;4.742;2022-07-09T10:19:56;102613.72;;;24.88;59.77
54882;BME280;40775;51.448;4.742;2022-07-09T10:22:41;102612.81;;;24.89;59.83
54882;BME280;40775;51.448;4.742;2022-07-09T10:25:22;102593.91;;;25.03;60.12
54882;BME280;40775;51.448;4.742;2022-07-09T10:27:53;102597.38;;;25.11;60.39
54882;BME280;40775;51.448;4.742;2022-07-09T10:30:31;102602.63;;;25.23;60.36
54882;BME280;40775;51.448;4.742;2022-07-09T10:33:06;102596.28;;;25.27;60.42
54882;BME280;40775;51.448;4.742;2022-07-09T10:35:45;102606.19;;;25.25;59.88
54882;BME280;40775;51.448;4.742;2022-07-09T10:38:14;102593.69;;;25.21;58.38
54882;BME280;40775;51.448;4.742;2022-07-09T10:40:57;102606.00;;;25.37;57.58
54882;BME280;40775;51.448;4.742;2022-07-09T10:43:42;102606.00;;;25.37;58.49
54882;BME280;40775;51.448;4.742;2022-07-09T10:46:14;102596.13;;;25.38;57.79
54882;BME280;40775;51.448;4.742;2022-07-09T10:48:43;102598.13;;;25.25;58.20
54882;BME280;40775;51.448;4.742;2022-07-09T10:51:22;102610.75;;;25.17;57.68
54882;BME280;40775;51.448;4.742;2022-07-09T10:53:50;102590.72;;;25.41;56.41
54882;BME280;40775;51.448;4.742;2022-07-09T10:56:19;102593.44;;;25.38;55.87
54882;BME280;40775;51.448;4.742;2022-07-09T10:58:50;102599.63;;;25.44;55.59
54882;BME280;40775;51.448;4.742;2022-07-09T11:01:23;102587.78;;;25.59;55.54
54882;BME280;40775;51.448;4.742;2022-07-09T11:03:52;102605.63;;;25.68;56.51
54882;BME280;40775;51.448;4.742;2022-07-09T11:06:21;102597.69;;;25.55;55.60
54882;BME280;40775;51.448;4.742;2022-07-09T11:08:48;102604.28;;;25.32;56.34
54882;BME280;40775;51.448;4.742;2022-07-09T11:11:23;102593.09;;;25.64;54.94
54882;BME280;40775;51.448;4.742;2022-07-09T11:13:53;102602.91;;;25.69;54.08
54882;BME280;40775;51.448;4.742;2022-07-09T11:16:25;102601.25;;;25.57;55.60
54882;BME280;40775;51.448;4.742;2022-07-09T11:18:54;102604.44;;;25.87;54.41
54882;BME280;40775;51.448;4.742;2022-07-09T11:21:27;102617.59;;;25.42;55.60
54882;BME280;40775;51.448;4.742;2022-07-09T11:23:54;102609.50;;;25.44;55.39
54882;BME280;40775;51.448;4.742;2022-07-09T11:26:21;102609.41;;;25.51;55.48
54882;BME280;40775;51.448;4.742;2022-07-09T11:28:50;102603.91;;;25.59;55.81
54882;BME280;40775;51.448;4.742;2022-07-09T11:31:20;102624.59;;;25.55;54.68
54882;BME280;40775;51.448;4.742;2022-07-09T11:33:47;102610.47;;;26.01;54.75
54882;BME280;40775;51.448;4.742;2022-07-09T11:36:42;102626.00;;;25.85;55.88
54882;BME280;40775;51.448;4.742;2022-07-09T11:39:32;102617.59;;;25.42;55.48
54882;BME280;40775;51.448;4.742;2022-07-09T11:42:01;102613.69;;;25.68;55.03
54882;BME280;40775;51.448;4.742;2022-07-09T11:44:31;102609.84;;;25.85;54.50
54882;BME280;40775;51.448;4.742;2022-07-09T11:47:10;102635.53;;;25.40;54.49
54882;BME280;40775;51.448;4.742;2022-07-09T11:49:44;102640.59;;;25.68;55.52
54882;BME280;40775;51.448;4.742;2022-07-09T11:54:55;102635.69;;;25.30;54.96
54882;BME280;40775;51.448;4.742;2022-07-09T11:57:23;102634.31;;;25.66;55.22
54882;BME280;40775;51.448;4.742;2022-07-09T11:59:50;102639.28;;;25.30;54.95
54882;BME280;40775;51.448;4.742;2022-07-09T12:02:30;102632.34;;;25.09;54.10
54882;BME280;40775;51.448;4.742;2022-07-09T12:04:59;102618.56;;;25.37;54.16
54882;BME280;40775;51.448;4.742;2022-07-09T12:07:27;102622.63;;;25.70;53.67
54882;BME280;40775;51.448;4.742;2022-07-09T12:10:09;102616.38;;;25.68;52.94
54882;BME280;40775;51.448;4.742;2022-07-09T12:12:37;102619.06;;;25.66;53.21
54882;BME280;40775;51.448;4.742;2022-07-09T12:15:06;102616.75;;;26.02;52.34
54882;BME280;40775;51.448;4.742;2022-07-09T12:17:35;102614.53;;;25.70;52.13
54882;BME280;40775;51.448;4.742;2022-07-09T12:20:05;102632.13;;;25.27;51.74
54882;BME280;40775;51.448;4.742;2022-07-09T12:22:35;102625.91;;;25.24;52.53
54882;BME280;40775;51.448;4.742;2022-07-09T12:25:02;102624.25;;;25.11;52.52
54882;BME280;40775;51.448;4.742;2022-07-09T12:27:29;102640.44;;;25.08;52.76
54882;BME280;40775;51.448;4.742;2022-07-09T12:29:56;102624.78;;;25.40;51.92
54882;BME280;40775;51.448;4.742;2022-07-09T12:32:24;102621.03;;;25.55;50.73
54882;BME280;40775;51.448;4.742;2022-07-09T12:34:51;102618.31;;;25.56;49.78
54882;BME280;40775;51.448;4.742;2022-07-09T12:37:18;102601.03;;;25.74;49.05
54882;BME280;40775;51.448;4.742;2022-07-09T12:39:45;102601.47;;;26.05;49.37
54882;BME280;40775;51.448;4.742;2022-07-09T12:42:17;102605.41;;;25.83;49.80
54882;BME280;40775;51.448;4.742;2022-07-09T12:44:46;102617.25;;;25.68;49.21
54882;BME280;40775;51.448;4.742;2022-07-09T12:47:13;102613.56;;;25.77;48.76
54882;BME280;40775;51.448;4.742;2022-07-09T12:49:40;102610.84;;;25.80;49.52
54882;BME280;40775;51.448;4.742;2022-07-09T12:52:07;102610.69;;;25.89;49.70
54882;BME280;40775;51.448;4.742;2022-07-09T12:54:34;102599.63;;;26.07;48.42
54882;BME280;40775;51.448;4.742;2022-07-09T12:57:01;102610.41;;;25.43;50.30
54882;BME280;40775;51.448;4.742;2022-07-09T12:59:36;102604.78;;;25.61;49.82
54882;BME280;40775;51.448;4.742;2022-07-09T13:02:03;102606.47;;;25.70;48.48
54882;BME280;40775;51.448;4.742;2022-07-09T13:04:31;102605.06;;;26.04;50.77
54882;BME280;40775;51.448;4.742;2022-07-09T13:06:58;102607.22;;;25.81;49.85
54882;BME280;40775;51.448;4.742;2022-07-09T13:09:25;102605.31;;;25.89;50.62
54882;BME280;40775;51.448;4.742;2022-07-09T13:11:52;102606.03;;;25.99;50.08